createdAt,value
2023-01-08T00:01:40.994Z,4.87
2023-01-08T00:06:46.181Z,5.87
2023-01-08T00:11:50.167Z,5.63
2023-01-08T00:16:53.894Z,5.67
2023-01-08T00:21:58.776Z,5.27
2023-01-08T00:27:07.839Z,5.03
2023-01-08T00:32:11.317Z,6.00
2023-01-08T00:37:19.077Z,5.60
2023-01-08T00:42:22.687Z,5.40
2023-01-08T00:47:26.191Z,4.90
2023-01-08T00:52:31.151Z,4.70
2023-01-08T00:57:35.452Z,4.37
2023-01-08T01:02:39.445Z,4.10
2023-01-08T01:07:45.599Z,5.53
2023-01-08T01:12:49.063Z,4.50
2023-01-08T01:17:52.472Z,5.20
2023-01-08T01:22:57.341Z,4.90
2023-01-08T01:28:00.731Z,4.57
2023-01-08T01:33:04.184Z,4.40
2023-01-08T01:38:09.056Z,4.33
2023-01-08T01:43:15.099Z,5.73
2023-01-08T01:48:18.561Z,6.17
2023-01-08T01:53:28.558Z,6.20
2023-01-08T01:58:33.583Z,5.73
2023-01-08T02:03:38.857Z,5.40
2023-01-08T02:08:53.408Z,5.63
2023-01-08T02:14:03.464Z,5.37
2023-01-08T02:19:20.327Z,5.53
2023-01-08T02:24:36.314Z,5.00
2023-01-08T02:29:42.362Z,5.37
2023-01-08T02:34:45.777Z,5.37
2023-01-08T02:39:59.681Z,5.20
2023-01-08T02:45:13.275Z,5.13
2023-01-08T02:50:23.923Z,4.70
2023-01-08T02:55:30.113Z,4.17
2023-01-08T03:00:36.304Z,4.37
2023-01-08T03:05:43.205Z,4.20
2023-01-08T03:10:50.838Z,4.37
2023-01-08T03:16:00.518Z,4.13
2023-01-08T03:21:06.785Z,4.53
2023-01-08T03:26:12.072Z,3.87
2023-01-08T03:31:18.914Z,5.03
2023-01-08T03:36:26.373Z,5.70
2023-01-08T03:41:32.980Z,5.07
2023-01-08T03:46:41.956Z,5.40
2023-01-08T03:51:47.587Z,4.53
2023-01-08T03:56:51.102Z,4.63
2023-01-08T04:01:56.107Z,3.83
2023-01-08T04:06:59.696Z,3.90
2023-01-08T04:12:03.100Z,4.10
2023-01-08T04:17:07.981Z,3.77
2023-01-08T04:22:12.119Z,4.67
2023-01-08T04:27:15.574Z,4.20
2023-01-08T04:32:21.232Z,4.57
2023-01-08T04:37:24.635Z,4.17
2023-01-08T04:42:28.097Z,4.53
2023-01-08T04:47:33.002Z,4.00
2023-01-08T04:52:36.472Z,4.10
2023-01-08T04:57:39.941Z,4.10
2023-01-08T05:02:44.993Z,3.90
2023-01-08T05:07:48.613Z,4.03
2023-01-08T05:12:52.094Z,4.37
2023-01-08T05:18:01.722Z,3.87
2023-01-08T05:23:05.093Z,4.20
2023-01-08T05:28:08.588Z,4.40
2023-01-08T05:33:13.409Z,4.27
2023-01-08T05:38:16.926Z,3.70
2023-01-08T05:43:20.401Z,3.97
2023-01-08T05:48:25.235Z,4.60
2023-01-08T05:53:28.713Z,5.40
2023-01-08T05:58:32.456Z,5.00
2023-01-08T06:03:37.735Z,5.07
2023-01-08T06:08:41.425Z,5.30
2023-01-08T06:13:45.533Z,4.70
2023-01-08T06:18:50.470Z,3.70
2023-01-08T06:23:53.949Z,5.67
2023-01-08T06:28:57.386Z,5.10
2023-01-08T06:34:02.270Z,5.27
2023-01-08T06:39:07.416Z,3.07
2023-01-08T06:44:10.971Z,4.40
2023-01-08T06:49:17.628Z,4.83
2023-01-08T06:54:21.291Z,5.70
2023-01-08T06:59:27.858Z,4.97
2023-01-08T07:04:32.793Z,4.50
2023-01-08T07:09:36.713Z,4.13
2023-01-08T07:14:40.137Z,4.53
2023-01-08T07:19:45.023Z,4.90
2023-01-08T07:24:48.511Z,4.13
2023-01-08T07:29:51.953Z,3.90
2023-01-08T07:34:59.358Z,5.43
2023-01-08T07:40:02.787Z,6.00
2023-01-08T07:45:08.321Z,7.10
2023-01-08T07:50:13.243Z,5.93
2023-01-08T07:55:17.011Z,8.80
2023-01-08T08:00:21.198Z,5.47
2023-01-08T08:05:26.040Z,5.20
2023-01-08T08:10:29.538Z,4.80
2023-01-08T08:15:33.719Z,4.60
2023-01-08T08:20:39.115Z,5.47
2023-01-08T08:25:43.476Z,5.27
2023-01-08T08:30:47.098Z,4.77
2023-01-08T08:35:52.673Z,5.73
2023-01-08T08:40:56.099Z,6.10
2023-01-08T08:45:59.603Z,6.80
2023-01-08T08:51:05.908Z,5.93
2023-01-08T08:56:09.764Z,6.67
2023-01-08T09:01:14.258Z,8.33
2023-01-08T09:06:19.101Z,8.07
2023-01-08T09:11:22.535Z,6.70
2023-01-08T09:16:26.061Z,8.23
2023-01-08T09:21:30.999Z,9.93
2023-01-08T09:26:34.358Z,8.93
2023-01-08T09:31:37.769Z,10.90
2023-01-08T09:36:42.608Z,11.43
2023-01-08T09:41:48.939Z,10.07
2023-01-08T09:46:52.513Z,11.30
2023-01-08T09:51:57.920Z,16.00
2023-01-08T09:57:02.049Z,14.87
2023-01-08T10:02:06.265Z,16.23
2023-01-08T10:07:21.329Z,16.70
2023-01-08T10:12:29.049Z,16.87
2023-01-08T10:17:38.440Z,11.63
2023-01-08T10:22:44.844Z,10.90
2023-01-08T10:27:50.298Z,9.50
2023-01-08T10:32:56.160Z,9.57
2023-01-08T10:38:01.381Z,9.73
2023-01-08T10:43:09.858Z,10.03
2023-01-08T10:48:19.484Z,32.60
2023-01-08T10:53:27.492Z,6.97
2023-01-08T10:58:31.869Z,8.40
2023-01-08T11:03:35.378Z,9.10
2023-01-08T11:08:40.519Z,8.80
2023-01-08T11:13:57.272Z,8.77
2023-01-08T11:19:00.838Z,9.40
2023-01-08T11:24:16.610Z,7.57
2023-01-08T11:29:26.280Z,6.93
2023-01-08T11:34:36.287Z,4.80
2023-01-08T11:39:41.405Z,5.30
2023-01-08T11:44:57.766Z,3.70
2023-01-08T11:50:11.867Z,4.47
2023-01-08T11:55:28.643Z,4.43
2023-01-08T12:00:55.364Z,3.60
2023-01-08T12:06:08.531Z,4.37
2023-01-08T12:11:22.287Z,2.37
2023-01-08T12:16:37.579Z,2.73
2023-01-08T12:21:55.355Z,2.70
2023-01-08T12:27:06.555Z,2.10
2023-01-08T12:32:23.825Z,2.80
2023-01-08T12:37:32.702Z,2.37
2023-01-08T12:42:47.135Z,2.80
2023-01-08T12:48:00.584Z,2.37
2023-01-08T12:53:10.287Z,2.80
2023-01-08T12:58:27.181Z,3.20
2023-01-08T13:03:33.399Z,3.10
2023-01-08T13:08:38.927Z,2.73
2023-01-08T13:13:45.404Z,2.50
2023-01-08T13:18:57.299Z,3.00
2023-01-08T13:24:23.175Z,3.30
2023-01-08T13:29:40.047Z,3.40
2023-01-08T13:34:43.671Z,3.20
2023-01-08T13:39:47.204Z,2.60
2023-01-08T13:44:53.923Z,1.90
2023-01-08T13:49:58.241Z,2.53
2023-01-08T13:55:04.948Z,1.97
2023-01-08T14:00:19.438Z,2.20
2023-01-08T14:05:27.342Z,3.07
2023-01-08T14:10:32.065Z,3.80
2023-01-08T14:15:39.612Z,4.80
2023-01-08T14:20:49.446Z,3.63
2023-01-08T14:25:53.564Z,3.67
2023-01-08T14:30:59.169Z,3.77
2023-01-08T14:36:03.589Z,3.40
2023-01-08T14:41:11.007Z,3.37
2023-01-08T14:46:21.523Z,4.43
2023-01-08T14:51:27.311Z,4.33
2023-01-08T14:56:33.453Z,4.60
2023-01-08T15:01:38.852Z,4.70
2023-01-08T15:06:42.637Z,5.37
2023-01-08T15:11:53.700Z,5.67
2023-01-08T15:17:00.430Z,5.13
2023-01-08T15:22:04.411Z,4.57
2023-01-08T15:27:10.876Z,3.90
2023-01-08T15:32:23.590Z,3.83
2023-01-08T15:37:27.221Z,2.87
2023-01-08T15:42:50.872Z,3.40
2023-01-08T15:47:55.822Z,4.17
2023-01-08T15:53:01.209Z,4.90
2023-01-08T15:58:05.121Z,4.03
2023-01-08T16:03:10.275Z,3.23
2023-01-08T16:08:14.140Z,3.27
2023-01-08T16:13:17.802Z,2.90
2023-01-08T16:18:22.930Z,2.70
2023-01-08T16:23:27.072Z,2.57
2023-01-08T16:28:30.851Z,3.43
2023-01-08T16:33:37.277Z,4.17
2023-01-08T16:38:41.496Z,4.60
2023-01-08T16:43:45.562Z,4.40
2023-01-08T16:48:51.867Z,3.90
2023-01-08T16:53:57.890Z,3.60
2023-01-08T16:59:07.197Z,5.93
2023-01-08T17:04:14.302Z,6.37
2023-01-08T17:09:17.904Z,5.10
2023-01-08T17:14:21.691Z,5.37
2023-01-08T17:19:28.617Z,5.10
2023-01-08T17:24:32.680Z,5.07
2023-01-08T17:29:36.331Z,5.53
2023-01-08T17:34:41.762Z,5.27
2023-01-08T17:39:45.933Z,4.20
2023-01-08T17:44:49.863Z,3.50
2023-01-08T17:49:58.342Z,4.10
2023-01-08T17:55:02.939Z,3.80
2023-01-08T18:00:08.440Z,3.87
2023-01-08T18:05:14.415Z,3.80
2023-01-08T18:10:18.558Z,7.20
2023-01-08T18:15:22.807Z,11.43
2023-01-08T18:20:27.901Z,9.17
2023-01-08T18:25:32.489Z,8.57
2023-01-08T18:30:37.078Z,7.60
2023-01-08T18:35:42.905Z,7.13
2023-01-08T18:40:49.065Z,6.97
2023-01-08T18:45:53.062Z,6.80
2023-01-08T18:51:04.402Z,6.23
2023-01-08T18:56:10.452Z,11.67
2023-01-08T19:01:14.942Z,11.50
2023-01-08T19:06:21.227Z,8.30
2023-01-08T19:11:25.097Z,8.47
2023-01-08T19:16:29.908Z,8.60
2023-01-08T19:21:36.280Z,7.63
2023-01-08T19:26:40.557Z,7.30
2023-01-08T19:31:44.283Z,7.07
2023-01-08T19:36:49.819Z,7.33
2023-01-08T19:42:12.385Z,7.37
2023-01-08T19:47:16.604Z,8.67
2023-01-08T19:52:24.376Z,6.20
2023-01-08T19:57:29.077Z,6.43
2023-01-08T20:02:34.500Z,6.73
2023-01-08T20:07:40.939Z,6.80
2023-01-08T20:12:45.676Z,5.30
2023-01-08T20:17:51.021Z,5.23
2023-01-08T20:22:57.167Z,5.27
2023-01-08T20:28:02.101Z,5.93
2023-01-08T20:33:06.487Z,7.60
2023-01-08T20:38:14.577Z,6.90
2023-01-08T20:43:19.506Z,6.07
2023-01-08T20:48:23.697Z,7.57
2023-01-08T20:53:29.643Z,21.53
2023-01-08T20:58:33.614Z,23.17
2023-01-08T21:03:37.538Z,9.17
2023-01-08T21:08:43.503Z,9.80
2023-01-08T21:13:48.242Z,9.23
2023-01-08T21:18:52.341Z,8.00
2023-01-08T21:23:58.172Z,6.17
2023-01-08T21:29:03.160Z,9.57
2023-01-08T21:34:08.994Z,8.63
2023-01-08T21:39:14.081Z,8.80
2023-01-08T21:44:36.782Z,8.17
2023-01-08T21:49:40.559Z,6.30
2023-01-08T21:54:45.574Z,5.77
2023-01-08T21:59:50.648Z,9.77
2023-01-08T22:04:56.484Z,8.70
2023-01-08T22:10:01.831Z,16.27
2023-01-08T22:15:05.865Z,5.60
2023-01-08T22:20:10.741Z,4.47
2023-01-08T22:25:15.700Z,5.10
2023-01-08T22:30:19.464Z,7.03
2023-01-08T22:35:22.911Z,7.37
2023-01-08T22:40:27.844Z,7.07
2023-01-08T22:45:31.527Z,5.93
2023-01-08T22:50:35.147Z,6.70
2023-01-08T22:55:43.848Z,6.13
2023-01-08T23:00:47.364Z,6.40
2023-01-08T23:05:50.799Z,5.87
2023-01-08T23:10:57.481Z,6.23
2023-01-08T23:16:00.940Z,7.07
2023-01-08T23:21:05.087Z,7.27
2023-01-08T23:26:11.753Z,7.70
2023-01-08T23:31:27.379Z,7.17
2023-01-08T23:36:30.876Z,5.83
2023-01-08T23:41:35.995Z,5.60
2023-01-08T23:46:39.435Z,5.17
2023-01-08T23:51:42.960Z,5.10
2023-01-08T23:56:47.829Z,5.90
